sensor_id;sensor_type;location;lat;lon;timestamp;pressure;altitude;pressure_sealevel;temperature;humidity
54882;BME280;40775;51.448;4.742;2022-11-15T00:01:15;100734.56;;;10.36;93.58
54882;BME280;40775;51.448;4.742;2022-11-15T00:03:44;100733.78;;;10.40;93.77
54882;BME280;40775;51.448;4.742;2022-11-15T00:06:11;100735.50;;;10.40;93.64
54882;BME280;40775;51.448;4.742;2022-11-15T00:08:39;100732.06;;;10.41;93.82
54882;BME280;40775;51.448;4.742;2022-11-15T00:11:05;100731.22;;;10.42;93.92
54882;BME280;40775;51.448;4.742;2022-11-15T00:13:33;100723.34;;;10.42;93.63
54882;BME280;40775;51.448;4.742;2022-11-15T00:16:01;100725.16;;;10.46;93.84
54882;BME280;40775;51.448;4.742;2022-11-15T00:18:30;100731.28;;;10.46;94.25
54882;BME280;40775;51.448;4.742;2022-11-15T00:21:05;100724.34;;;10.48;93.97
54882;BME280;40775;51.448;4.742;2022-11-15T00:23:33;100722.63;;;10.50;94.11
54882;BME280;40775;51.448;4.742;2022-11-15T00:26:00;100714.78;;;10.52;93.87
54882;BME280;40775;51.448;4.742;2022-11-15T00:28:28;100705.16;;;10.52;94.42
54882;BME280;40775;51.448;4.742;2022-11-15T00:31:01;100706.97;;;10.57;94.25
54882;BME280;40775;51.448;4.742;2022-11-15T00:33:28;100709.66;;;10.60;94.23
54882;BME280;40775;51.448;4.742;2022-11-15T00:36:07;100700.06;;;10.62;94.50
54882;BME280;40775;51.448;4.742;2022-11-15T00:38:39;100706.28;;;10.67;94.56
54882;BME280;40775;51.448;4.742;2022-11-15T00:41:07;100703.72;;;10.70;94.74
54882;BME280;40775;51.448;4.742;2022-11-15T00:43:36;100697.63;;;10.72;95.02
54882;BME280;40775;51.448;4.742;2022-11-15T00:46:03;100707.31;;;10.75;95.05
54882;BME280;40775;51.448;4.742;2022-11-15T00:48:30;100706.44;;;10.76;95.32
54882;BME280;40775;51.448;4.742;2022-11-15T00:50:58;100710.00;;;10.78;95.56
54882;BME280;40775;51.448;4.742;2022-11-15T00:53:25;100713.53;;;10.81;95.85
54882;BME280;40775;51.448;4.742;2022-11-15T00:55:52;100721.41;;;10.80;96.04
54882;BME280;40775;51.448;4.742;2022-11-15T00:58:19;100711.81;;;10.83;95.58
54882;BME280;40775;51.448;4.742;2022-11-15T01:00:46;100711.81;;;10.83;96.11
54882;BME280;40775;51.448;4.742;2022-11-15T01:03:14;100715.38;;;10.87;96.13
54882;BME280;40775;51.448;4.742;2022-11-15T01:05:41;100713.69;;;10.91;96.15
54882;BME280;40775;51.448;4.742;2022-11-15T01:08:16;100715.44;;;10.92;96.25
54882;BME280;40775;51.448;4.742;2022-11-15T01:10:43;100717.25;;;10.94;96.44
54882;BME280;40775;51.448;4.742;2022-11-15T01:13:10;100722.56;;;10.96;96.51
54882;BME280;40775;51.448;4.742;2022-11-15T01:15:41;100713.88;;;11.00;96.39
54882;BME280;40775;51.448;4.742;2022-11-15T01:18:08;100722.66;;;11.03;96.56
54882;BME280;40775;51.448;4.742;2022-11-15T01:20:41;100720.13;;;11.09;96.54
54882;BME280;40775;51.448;4.742;2022-11-15T01:23:09;100715.78;;;11.10;97.27
54882;BME280;40775;51.448;4.742;2022-11-15T01:25:37;100715.78;;;11.10;97.19
54882;BME280;40775;51.448;4.742;2022-11-15T01:28:04;100716.72;;;11.15;97.55
54882;BME280;40775;51.448;4.742;2022-11-15T01:30:31;100702.69;;;11.14;97.46
54882;BME280;40775;51.448;4.742;2022-11-15T01:32:58;100701.88;;;11.19;97.63
54882;BME280;40775;51.448;4.742;2022-11-15T01:35:25;100699.34;;;11.23;97.76
54882;BME280;40775;51.448;4.742;2022-11-15T01:37:52;100689.75;;;11.25;98.32
54882;BME280;40775;51.448;4.742;2022-11-15T01:40:19;100695.91;;;11.27;98.38
54882;BME280;40775;51.448;4.742;2022-11-15T01:42:46;100693.34;;;11.32;98.75
54882;BME280;40775;51.448;4.742;2022-11-15T01:45:15;100696.91;;;11.37;98.82
54882;BME280;40775;51.448;4.742;2022-11-15T01:47:52;100696.06;;;11.38;98.70
54882;BME280;40775;51.448;4.742;2022-11-15T01:50:25;100690.84;;;11.41;98.80
54882;BME280;40775;51.448;4.742;2022-11-15T01:52:54;100695.25;;;11.43;99.11
54882;BME280;40775;51.448;4.742;2022-11-15T01:55:25;100688.28;;;11.45;99.21
54882;BME280;40775;51.448;4.742;2022-11-15T01:58:00;100685.63;;;11.44;99.46
54882;BME280;40775;51.448;4.742;2022-11-15T02:00:29;100683.94;;;11.49;99.45
54882;BME280;40775;51.448;4.742;2022-11-15T02:02:57;100680.41;;;11.49;99.56
54882;BME280;40775;51.448;4.742;2022-11-15T02:05:24;100669.13;;;11.53;99.62
54882;BME280;40775;51.448;4.742;2022-11-15T02:07:52;100670.06;;;11.58;100.00
54882;BME280;40775;51.448;4.742;2022-11-15T02:10:22;100676.19;;;11.57;99.75
54882;BME280;40775;51.448;4.742;2022-11-15T02:12:50;100669.16;;;11.57;100.00
54882;BME280;40775;51.448;4.742;2022-11-15T02:15:19;100675.34;;;11.61;100.00
54882;BME280;40775;51.448;4.742;2022-11-15T02:21:02;100662.22;;;11.62;100.00
54882;BME280;40775;51.448;4.742;2022-11-15T02:32:44;100669.34;;;11.71;100.00
54882;BME280;40775;51.448;4.742;2022-11-15T02:35:41;100653.72;;;11.80;100.00
54882;BME280;40775;51.448;4.742;2022-11-15T02:41:02;100664.25;;;11.80;100.00
54882;BME280;40775;51.448;4.742;2022-11-15T02:43:59;100658.13;;;11.81;100.00
54882;BME280;40775;51.448;4.742;2022-11-15T02:49:19;100659.91;;;11.84;100.00
54882;BME280;40775;51.448;4.742;2022-11-15T02:51:48;100656.41;;;11.83;100.00
54882;BME280;40775;51.448;4.742;2022-11-15T02:54:25;100653.78;;;11.86;100.00
54882;BME280;40775;51.448;4.742;2022-11-15T02:56:56;100652.91;;;11.86;100.00
54882;BME280;40775;51.448;4.742;2022-11-15T03:08:37;100652.88;;;11.83;100.00
54882;BME280;40775;51.448;4.742;2022-11-15T03:11:14;100647.63;;;11.83;100.00
54882;BME280;40775;51.448;4.742;2022-11-15T03:14:12;100639.75;;;11.84;100.00
54882;BME280;40775;51.448;4.742;2022-11-15T03:20:03;100636.19;;;11.79;100.00
54882;BME280;40775;51.448;4.742;2022-11-15T03:22:39;100635.31;;;11.80;100.00
54882;BME280;40775;51.448;4.742;2022-11-15T03:25:12;100630.94;;;11.82;100.00
54882;BME280;40775;51.448;4.742;2022-11-15T03:27:51;100628.31;;;11.81;100.00
54882;BME280;40775;51.448;4.742;2022-11-15T03:30:20;100623.06;;;11.81;100.00
54882;BME280;40775;51.448;4.742;2022-11-15T03:32:56;100630.84;;;11.77;100.00
54882;BME280;40775;51.448;4.742;2022-11-15T03:35:38;100626.44;;;11.76;100.00
54882;BME280;40775;51.448;4.742;2022-11-15T03:38:24;100630.03;;;11.79;100.00
54882;BME280;40775;51.448;4.742;2022-11-15T03:41:05;100629.16;;;11.78;100.00
54882;BME280;40775;51.448;4.742;2022-11-15T03:47:12;100632.69;;;11.80;100.00
54882;BME280;40775;51.448;4.742;2022-11-15T03:49:49;100629.19;;;11.80;100.00
54882;BME280;40775;51.448;4.742;2022-11-15T03:52:19;100630.06;;;11.82;100.00
54882;BME280;40775;51.448;4.742;2022-11-15T03:54:55;100633.59;;;11.82;100.00
54882;BME280;40775;51.448;4.742;2022-11-15T03:57:23;100639.72;;;11.81;100.00
54882;BME280;40775;51.448;4.742;2022-11-15T03:59:50;100644.09;;;11.81;100.00
54882;BME280;40775;51.448;4.742;2022-11-15T04:02:17;100650.22;;;11.81;100.00
54882;BME280;40775;51.448;4.742;2022-11-15T04:04:44;100652.94;;;11.87;100.00
54882;BME280;40775;51.448;4.742;2022-11-15T04:07:11;100653.78;;;11.85;100.00
54882;BME280;40775;51.448;4.742;2022-11-15T04:09:39;100649.41;;;11.87;100.00
54882;BME280;40775;51.448;4.742;2022-11-15T04:12:26;100659.09;;;11.89;100.00
54882;BME280;40775;51.448;4.742;2022-11-15T04:15:10;100657.34;;;11.91;100.00
54882;BME280;40775;51.448;4.742;2022-11-15T04:17:46;100652.13;;;11.94;100.00
54882;BME280;40775;51.448;4.742;2022-11-15T04:20:26;100654.75;;;11.94;100.00
54882;BME280;40775;51.448;4.742;2022-11-15T04:23:19;100648.66;;;11.98;100.00
54882;BME280;40775;51.448;4.742;2022-11-15T04:26:19;100661.81;;;11.98;100.00
54882;BME280;40775;51.448;4.742;2022-11-15T04:28:47;100643.44;;;12.01;100.00
54882;BME280;40775;51.448;4.742;2022-11-15T04:31:33;100642.53;;;12.01;100.00
54882;BME280;40775;51.448;4.742;2022-11-15T04:34:00;100638.16;;;12.01;100.00
54882;BME280;40775;51.448;4.742;2022-11-15T04:36:27;100641.66;;;12.00;100.00
54882;BME280;40775;51.448;4.742;2022-11-15T04:39:13;100655.72;;;12.02;100.00
54882;BME280;40775;51.448;4.742;2022-11-15T04:41:40;100649.56;;;12.00;100.00
54882;BME280;40775;51.448;4.742;2022-11-15T04:44:07;100650.44;;;12.01;100.00
54882;BME280;40775;51.448;4.742;2022-11-15T04:46:34;100648.72;;;12.03;100.00
54882;BME280;40775;51.448;4.742;2022-11-15T04:49:01;100639.94;;;12.02;100.00
54882;BME280;40775;51.448;4.742;2022-11-15T04:51:28;100639.06;;;12.03;100.00
54882;BME280;40775;51.448;4.742;2022-11-15T04:53:55;100637.28;;;11.99;100.00
54882;BME280;40775;51.448;4.742;2022-11-15T04:56:22;100634.63;;;11.98;100.00
54882;BME280;40775;51.448;4.742;2022-11-15T04:58:49;100638.13;;;11.98;100.00
54882;BME280;40775;51.448;4.742;2022-11-15T05:01:17;100638.13;;;11.97;100.00
54882;BME280;40775;51.448;4.742;2022-11-15T05:03:44;100629.38;;;11.99;100.00
54882;BME280;40775;51.448;4.742;2022-11-15T05:06:31;100643.41;;;11.98;100.00
54882;BME280;40775;51.448;4.742;2022-11-15T05:08:58;100632.88;;;11.98;100.00
54882;BME280;40775;51.448;4.742;2022-11-15T05:11:25;100639.03;;;11.99;100.00
54882;BME280;40775;51.448;4.742;2022-11-15T05:13:54;100639.88;;;11.96;100.00
54882;BME280;40775;51.448;4.742;2022-11-15T05:16:21;100646.94;;;12.00;100.00
54882;BME280;40775;51.448;4.742;2022-11-15T05:18:52;100651.31;;;12.00;100.00
54882;BME280;40775;51.448;4.742;2022-11-15T05:21:20;100650.44;;;11.99;100.00
54882;BME280;40775;51.448;4.742;2022-11-15T05:23:47;100654.81;;;12.00;100.00
54882;BME280;40775;51.448;4.742;2022-11-15T05:26:16;100645.16;;;11.98;100.00
54882;BME280;40775;51.448;4.742;2022-11-15T05:28:44;100646.94;;;12.00;100.00
54882;BME280;40775;51.448;4.742;2022-11-15T05:31:15;100645.19;;;12.01;100.00
54882;BME280;40775;51.448;4.742;2022-11-15T05:33:43;100648.66;;;11.98;100.00
54882;BME280;40775;51.448;4.742;2022-11-15T05:38:53;100645.13;;;11.95;100.00
54882;BME280;40775;51.448;4.742;2022-11-15T05:41:30;100651.28;;;11.97;100.00
54882;BME280;40775;51.448;4.742;2022-11-15T05:44:00;100647.75;;;11.96;100.00
54882;BME280;40775;51.448;4.742;2022-11-15T05:46:28;100656.50;;;11.94;100.00
54882;BME280;40775;51.448;4.742;2022-11-15T05:48:56;100645.06;;;11.90;100.00
54882;BME280;40775;51.448;4.742;2022-11-15T05:51:24;100649.47;;;11.91;100.00
54882;BME280;40775;51.448;4.742;2022-11-15T05:53:56;100639.81;;;11.90;100.00
54882;BME280;40775;51.448;4.742;2022-11-15T05:56:25;100647.69;;;11.90;100.00
54882;BME280;40775;51.448;4.742;2022-11-15T05:58:57;100637.19;;;11.92;100.00
54882;BME280;40775;51.448;4.742;2022-11-15T06:01:26;100641.56;;;11.91;100.00
54882;BME280;40775;51.448;4.742;2022-11-15T06:03:54;100645.03;;;11.87;100.00
54882;BME280;40775;51.448;4.742;2022-11-15T06:06:21;100640.66;;;11.88;100.00
54882;BME280;40775;51.448;4.742;2022-11-15T06:08:48;100645.91;;;11.86;100.00
54882;BME280;40775;51.448;4.742;2022-11-15T06:11:15;100651.16;;;11.85;100.00
54882;BME280;40775;51.448;4.742;2022-11-15T06:13:42;100645.03;;;11.87;100.00
54882;BME280;40775;51.448;4.742;2022-11-15T06:16:09;100654.66;;;11.85;100.00
54882;BME280;40775;51.448;4.742;2022-11-15T06:18:37;100659.00;;;11.82;100.00
54882;BME280;40775;51.448;4.742;2022-11-15T06:21:04;100665.97;;;11.78;100.00
54882;BME280;40775;51.448;4.742;2022-11-15T06:23:33;100656.34;;;11.79;100.00
54882;BME280;40775;51.448;4.742;2022-11-15T06:26:02;100674.66;;;11.75;100.00
54882;BME280;40775;51.448;4.742;2022-11-15T06:28:31;100666.72;;;11.71;100.00
54882;BME280;40775;51.448;4.742;2022-11-15T06:31:10;100674.63;;;11.74;100.00
54882;BME280;40775;51.448;4.742;2022-11-15T06:33:40;100668.50;;;11.73;100.00
54882;BME280;40775;51.448;4.742;2022-11-15T06:36:12;100666.72;;;11.71;100.00
54882;BME280;40775;51.448;4.742;2022-11-15T06:38:46;100667.59;;;11.73;100.00
54882;BME280;40775;51.448;4.742;2022-11-15T06:41:14;100657.91;;;11.69;100.00
54882;BME280;40775;51.448;4.742;2022-11-15T06:43:41;100661.38;;;11.65;100.00
54882;BME280;40775;51.448;4.742;2022-11-15T06:46:09;100676.88;;;13.04;100.00
54882;BME280;40775;51.448;4.742;2022-11-15T06:48:36;100669.59;;;14.17;100.00
54882;BME280;40775;51.448;4.742;2022-11-15T06:51:04;100653.00;;;14.80;98.21
54882;BME280;40775;51.448;4.742;2022-11-15T06:53:32;100637.09;;;15.15;93.52
54882;BME280;40775;51.448;4.742;2022-11-15T06:56:06;100623.78;;;15.51;90.55
54882;BME280;40775;51.448;4.742;2022-11-15T06:58:33;100612.22;;;15.81;88.04
54882;BME280;40775;51.448;4.742;2022-11-15T07:01:10;100606.84;;;15.99;86.18
54882;BME280;40775;51.448;4.742;2022-11-15T07:03:40;100597.91;;;16.14;84.94
54882;BME280;40775;51.448;4.742;2022-11-15T07:06:09;100603.13;;;16.27;84.36
54882;BME280;40775;51.448;4.742;2022-11-15T07:08:36;100598.66;;;16.34;83.45
54882;BME280;40775;51.448;4.742;2022-11-15T07:11:06;100601.25;;;16.42;83.16
54882;BME280;40775;51.448;4.742;2022-11-15T07:13:35;100600.38;;;16.46;83.37
54882;BME280;40775;51.448;4.742;2022-11-15T07:16:09;100607.41;;;16.50;82.75
54882;BME280;40775;51.448;4.742;2022-11-15T07:18:40;100601.16;;;16.57;82.82
54882;BME280;40775;51.448;4.742;2022-11-15T07:21:09;100603.78;;;16.58;82.66
54882;BME280;40775;51.448;4.742;2022-11-15T07:23:38;100613.47;;;16.61;82.36
54882;BME280;40775;51.448;4.742;2022-11-15T07:26:06;100622.31;;;16.61;82.30
54882;BME280;40775;51.448;4.742;2022-11-15T07:28:34;100632.00;;;16.64;81.94
54882;BME280;40775;51.448;4.742;2022-11-15T07:31:06;100638.19;;;16.66;81.45
54882;BME280;40775;51.448;4.742;2022-11-15T07:33:34;100633.75;;;16.68;81.37
54882;BME280;40775;51.448;4.742;2022-11-15T07:36:04;100625.78;;;16.69;81.08
54882;BME280;40775;51.448;4.742;2022-11-15T07:38:34;100635.50;;;16.74;81.46
54882;BME280;40775;51.448;4.742;2022-11-15T07:41:09;100628.44;;;16.74;81.45
54882;BME280;40775;51.448;4.742;2022-11-15T07:43:36;100623.09;;;16.77;81.25
54882;BME280;40775;51.448;4.742;2022-11-15T07:46:08;100609.88;;;16.76;80.92
54882;BME280;40775;51.448;4.742;2022-11-15T07:48:37;100616.97;;;16.74;80.75
54882;BME280;40775;51.448;4.742;2022-11-15T07:51:12;100612.50;;;16.77;80.73
54882;BME280;40775;51.448;4.742;2022-11-15T07:53:42;100608.97;;;16.77;80.46
54882;BME280;40775;51.448;4.742;2022-11-15T07:56:10;100605.41;;;16.79;80.03
54882;BME280;40775;51.448;4.742;2022-11-15T07:58:37;100598.31;;;16.81;80.17
54882;BME280;40775;51.448;4.742;2022-11-15T08:01:06;100601.81;;;16.85;80.40
54882;BME280;40775;51.448;4.742;2022-11-15T08:03:34;100601.81;;;16.86;80.17
54882;BME280;40775;51.448;4.742;2022-11-15T08:06:04;100593.84;;;16.86;80.15
54882;BME280;40775;51.448;4.742;2022-11-15T08:08:31;100599.16;;;16.86;80.16
54882;BME280;40775;51.448;4.742;2022-11-15T08:10:59;100607.09;;;16.86;79.99
54882;BME280;40775;51.448;4.742;2022-11-15T08:13:26;100601.81;;;16.86;79.90
54882;BME280;40775;51.448;4.742;2022-11-15T08:16:01;100598.28;;;16.86;79.83
54882;BME280;40775;51.448;4.742;2022-11-15T08:18:29;100585.91;;;16.86;80.06
54882;BME280;40775;51.448;4.742;2022-11-15T08:21:01;100592.06;;;16.87;79.75
54882;BME280;40775;51.448;4.742;2022-11-15T08:23:28;100585.91;;;16.86;79.29
54882;BME280;40775;51.448;4.742;2022-11-15T08:26:01;100578.81;;;16.88;78.92
54882;BME280;40775;51.448;4.742;2022-11-15T08:28:30;100582.34;;;16.87;78.76
54882;BME280;40775;51.448;4.742;2022-11-15T08:30:57;100573.53;;;16.85;78.65
54882;BME280;40775;51.448;4.742;2022-11-15T08:33:24;100562.94;;;16.85;78.42
54882;BME280;40775;51.448;4.742;2022-11-15T08:35:52;100560.28;;;16.85;78.44
54882;BME280;40775;51.448;4.742;2022-11-15T08:38:18;100565.63;;;16.82;78.53
54882;BME280;40775;51.448;4.742;2022-11-15T08:40:45;100549.72;;;16.81;78.13
54882;BME280;40775;51.448;4.742;2022-11-15T08:43:12;100552.41;;;16.79;78.03
54882;BME280;40775;51.448;4.742;2022-11-15T08:45:39;100547.97;;;16.78;77.69
54882;BME280;40775;51.448;4.742;2022-11-15T08:48:06;100548.88;;;16.77;77.39
54882;BME280;40775;51.448;4.742;2022-11-15T08:50:33;100546.22;;;16.79;77.52
54882;BME280;40775;51.448;4.742;2022-11-15T08:53:08;100543.56;;;16.79;77.34
54882;BME280;40775;51.448;4.742;2022-11-15T08:55:37;100547.97;;;16.78;77.50
54882;BME280;40775;51.448;4.742;2022-11-15T08:58:05;100532.97;;;16.77;77.13
54882;BME280;40775;51.448;4.742;2022-11-15T09:00:33;100540.03;;;16.78;76.97
54882;BME280;40775;51.448;4.742;2022-11-15T09:03:05;100525.91;;;16.78;76.73
54882;BME280;40775;51.448;4.742;2022-11-15T09:05:36;100534.72;;;16.80;76.42
54882;BME280;40775;51.448;4.742;2022-11-15T09:08:04;100538.25;;;16.80;76.19
54882;BME280;40775;51.448;4.742;2022-11-15T09:10:51;100534.69;;;16.81;76.02
54882;BME280;40775;51.448;4.742;2022-11-15T09:13:19;100531.19;;;16.79;75.54
54882;BME280;40775;51.448;4.742;2022-11-15T09:15:45;100535.59;;;16.80;75.74
54882;BME280;40775;51.448;4.742;2022-11-15T09:18:13;100534.72;;;16.80;75.87
54882;BME280;40775;51.448;4.742;2022-11-15T09:20:40;100529.44;;;16.78;75.35
54882;BME280;40775;51.448;4.742;2022-11-15T09:23:07;100529.44;;;16.78;75.30
54882;BME280;40775;51.448;4.742;2022-11-15T09:25:34;100534.72;;;16.78;75.92
54882;BME280;40775;51.448;4.742;2022-11-15T09:28:06;100521.47;;;16.78;75.58
54882;BME280;40775;51.448;4.742;2022-11-15T09:30:34;100534.72;;;16.80;75.36
54882;BME280;40775;51.448;4.742;2022-11-15T09:33:12;100530.31;;;16.79;74.88
54882;BME280;40775;51.448;4.742;2022-11-15T09:35:39;100532.97;;;16.79;75.05
54882;BME280;40775;51.448;4.742;2022-11-15T09:38:08;100539.16;;;16.78;75.25
54882;BME280;40775;51.448;4.742;2022-11-15T09:40:36;100538.25;;;16.80;74.95
54882;BME280;40775;51.448;4.742;2022-11-15T09:43:27;100532.03;;;16.81;75.43
54882;BME280;40775;51.448;4.742;2022-11-15T09:49:01;100537.31;;;16.84;75.65
54882;BME280;40775;51.448;4.742;2022-11-15T09:51:36;100530.25;;;16.83;75.49
54882;BME280;40775;51.448;4.742;2022-11-15T09:54:36;100517.00;;;16.83;75.08
54882;BME280;40775;51.448;4.742;2022-11-15T10:03:18;100508.19;;;16.81;75.51
54882;BME280;40775;51.448;4.742;2022-11-15T10:05:51;100499.38;;;16.79;75.18
54882;BME280;40775;51.448;4.742;2022-11-15T10:11:03;100492.28;;;16.81;74.45
54882;BME280;40775;51.448;4.742;2022-11-15T10:13:53;100488.75;;;16.81;74.28
54882;BME280;40775;51.448;4.742;2022-11-15T10:25:30;100487.88;;;16.80;74.39
54882;BME280;40775;51.448;4.742;2022-11-15T10:28:28;100483.38;;;16.85;73.75
54882;BME280;40775;51.448;4.742;2022-11-15T10:30:59;100474.56;;;16.83;74.13
54882;BME280;40775;51.448;4.742;2022-11-15T10:33:39;100467.47;;;16.87;73.94
54882;BME280;40775;51.448;4.742;2022-11-15T10:41:42;100453.31;;;16.86;74.15
54882;BME280;40775;51.448;4.742;2022-11-15T10:44:29;100451.53;;;16.88;74.05
54882;BME280;40775;51.448;4.742;2022-11-15T10:49:26;100445.34;;;16.89;74.47
54882;BME280;40775;51.448;4.742;2022-11-15T10:52:16;100428.56;;;16.87;74.24
54882;BME280;40775;51.448;4.742;2022-11-15T10:55:21;100429.44;;;16.88;74.33
54882;BME280;40775;51.448;4.742;2022-11-15T11:00:48;100418.88;;;16.86;74.01
54882;BME280;40775;51.448;4.742;2022-11-15T11:03:36;100403.84;;;16.85;73.78
54882;BME280;40775;51.448;4.742;2022-11-15T11:06:17;100391.44;;;16.87;73.64
54882;BME280;40775;51.448;4.742;2022-11-15T11:09:38;100389.66;;;16.89;73.80
54882;BME280;40775;51.448;4.742;2022-11-15T11:12:10;100391.41;;;16.90;73.57
54882;BME280;40775;51.448;4.742;2022-11-15T11:14:39;100386.97;;;16.92;73.34
54882;BME280;40775;51.448;4.742;2022-11-15T11:18:18;100372.00;;;16.88;73.33
54882;BME280;40775;51.448;4.742;2022-11-15T11:20:57;100367.53;;;16.92;73.52
54882;BME280;40775;51.448;4.742;2022-11-15T11:32:28;100350.69;;;16.94;73.22
54882;BME280;40775;51.448;4.742;2022-11-15T11:35:13;100342.75;;;16.94;73.26
54882;BME280;40775;51.448;4.742;2022-11-15T11:38:15;100333.91;;;16.94;73.20
54882;BME280;40775;51.448;4.742;2022-11-15T11:47:10;100316.28;;;16.90;73.05
54882;BME280;40775;51.448;4.742;2022-11-15T11:50:02;100306.53;;;16.92;72.83
54882;BME280;40775;51.448;4.742;2022-11-15T11:53:03;100308.22;;;16.97;72.46
54882;BME280;40775;51.448;4.742;2022-11-15T11:55:42;100301.22;;;16.93;72.94
54882;BME280;40775;51.448;4.742;2022-11-15T12:01:20;100300.31;;;16.94;73.40
54882;BME280;40775;51.448;4.742;2022-11-15T12:04:19;100292.31;;;16.97;72.88
54882;BME280;40775;51.448;4.742;2022-11-15T12:07:13;100292.31;;;16.97;73.02
54882;BME280;40775;51.448;4.742;2022-11-15T12:10:22;100294.94;;;17.01;72.82
54882;BME280;40775;51.448;4.742;2022-11-15T12:13:07;100289.63;;;17.02;72.94
54882;BME280;40775;51.448;4.742;2022-11-15T12:18:17;100283.44;;;17.02;73.18
54882;BME280;40775;51.448;4.742;2022-11-15T12:21:45;100278.13;;;17.02;72.97
54882;BME280;40775;51.448;4.742;2022-11-15T12:24:31;100266.63;;;17.03;72.91
54882;BME280;40775;51.448;4.742;2022-11-15T12:27:22;100256.88;;;17.05;72.84
54882;BME280;40775;51.448;4.742;2022-11-15T12:29:58;100264.84;;;17.03;72.78
54882;BME280;40775;51.448;4.742;2022-11-15T12:32:34;100253.38;;;17.03;72.97
54882;BME280;40775;51.448;4.742;2022-11-15T12:35:05;100243.63;;;17.03;73.20
54882;BME280;40775;51.448;4.742;2022-11-15T12:45:43;100223.19;;;17.10;72.83
54882;BME280;40775;51.448;4.742;2022-11-15T12:58:58;100203.78;;;17.08;72.84
54882;BME280;40775;51.448;4.742;2022-11-15T13:07:03;100187.06;;;17.04;72.79
54882;BME280;40775;51.448;4.742;2022-11-15T13:12:06;100187.03;;;17.06;72.57
54882;BME280;40775;51.448;4.742;2022-11-15T13:17:30;100175.47;;;17.08;72.31
54882;BME280;40775;51.448;4.742;2022-11-15T13:31:37;100146.28;;;17.10;72.29
54882;BME280;40775;51.448;4.742;2022-11-15T13:34:36;100149.84;;;17.09;72.56
54882;BME280;40775;51.448;4.742;2022-11-15T13:39:50;100124.13;;;17.12;72.27
54882;BME280;40775;51.448;4.742;2022-11-15T13:42:20;100126.78;;;17.12;72.30
54882;BME280;40775;51.448;4.742;2022-11-15T13:45:03;100117.06;;;17.13;72.22
54882;BME280;40775;51.448;4.742;2022-11-15T13:47:33;100104.66;;;17.13;72.36
54882;BME280;40775;51.448;4.742;2022-11-15T13:50:00;100105.53;;;17.14;72.40
54882;BME280;40775;51.448;4.742;2022-11-15T13:52:36;100099.38;;;17.12;72.35
54882;BME280;40775;51.448;4.742;2022-11-15T13:55:17;100097.66;;;17.11;72.49
54882;BME280;40775;51.448;4.742;2022-11-15T13:58:02;100083.47;;;17.12;72.35
54882;BME280;40775;51.448;4.742;2022-11-15T14:00:43;100084.38;;;17.11;72.39
54882;BME280;40775;51.448;4.742;2022-11-15T14:03:25;100071.13;;;17.11;72.20
54882;BME280;40775;51.448;4.742;2022-11-15T14:06:15;100065.84;;;17.09;71.88
54882;BME280;40775;51.448;4.742;2022-11-15T14:09:14;100049.97;;;17.08;71.85
54882;BME280;40775;51.448;4.742;2022-11-15T14:11:55;100045.53;;;17.08;71.55
54882;BME280;40775;51.448;4.742;2022-11-15T14:14:25;100048.22;;;17.07;71.72
54882;BME280;40775;51.448;4.742;2022-11-15T14:16:57;100039.34;;;17.08;71.37
54882;BME280;40775;51.448;4.742;2022-11-15T14:24:37;100029.59;;;17.10;71.08
54882;BME280;40775;51.448;4.742;2022-11-15T14:27:27;100021.63;;;17.10;71.16
54882;BME280;40775;51.448;4.742;2022-11-15T14:29:55;100018.13;;;17.09;71.16
54882;BME280;40775;51.448;4.742;2022-11-15T14:32:37;100020.72;;;17.11;71.25
54882;BME280;40775;51.448;4.742;2022-11-15T14:35:19;100011.88;;;17.12;71.13
54882;BME280;40775;51.448;4.742;2022-11-15T14:37:46;100011.94;;;17.09;71.59
54882;BME280;40775;51.448;4.742;2022-11-15T14:40:18;100014.53;;;17.12;71.50
54882;BME280;40775;51.448;4.742;2022-11-15T14:42:47;100010.09;;;17.12;71.25
54882;BME280;40775;51.448;4.742;2022-11-15T14:45:19;100005.63;;;17.14;71.17
54882;BME280;40775;51.448;4.742;2022-11-15T14:47:47;100007.34;;;17.17;71.08
54882;BME280;40775;51.448;4.742;2022-11-15T14:50:19;99999.34;;;17.18;71.20
54882;BME280;40775;51.448;4.742;2022-11-15T14:52:47;99997.56;;;17.19;71.17
54882;BME280;40775;51.448;4.742;2022-11-15T14:55:33;99993.13;;;17.21;71.15
54882;BME280;40775;51.448;4.742;2022-11-15T14:58:04;99989.63;;;17.19;71.36
54882;BME280;40775;51.448;4.742;2022-11-15T15:00:32;99986.09;;;17.18;71.45
54882;BME280;40775;51.448;4.742;2022-11-15T15:03:02;99984.34;;;17.17;71.21
54882;BME280;40775;51.448;4.742;2022-11-15T15:05:42;99978.09;;;17.20;71.22
54882;BME280;40775;51.448;4.742;2022-11-15T15:08:10;99989.59;;;17.20;71.06
54882;BME280;40775;51.448;4.742;2022-11-15T15:10:43;99987.81;;;17.21;71.21
54882;BME280;40775;51.448;4.742;2022-11-15T15:13:23;99986.97;;;17.19;71.13
54882;BME280;40775;51.448;4.742;2022-11-15T15:15:51;99986.00;;;17.23;71.09
54882;BME280;40775;51.448;4.742;2022-11-15T15:18:19;99989.56;;;17.22;70.69
54882;BME280;40775;51.448;4.742;2022-11-15T15:20:55;99985.09;;;17.24;70.99
54882;BME280;40775;51.448;4.742;2022-11-15T15:23:23;99981.53;;;17.25;71.34
54882;BME280;40775;51.448;4.742;2022-11-15T15:25:52;99981.56;;;17.23;71.45
54882;BME280;40775;51.448;4.742;2022-11-15T15:28:19;99980.66;;;17.24;71.41
54882;BME280;40775;51.448;4.742;2022-11-15T15:30:46;99970.03;;;17.24;71.34
54882;BME280;40775;51.448;4.742;2022-11-15T15:33:13;99976.22;;;17.26;71.70
54882;BME280;40775;51.448;4.742;2022-11-15T15:35:41;99973.56;;;17.25;71.37
54882;BME280;40775;51.448;4.742;2022-11-15T15:38:11;99972.66;;;17.27;71.81